AirNav   MODERNIZE NOT PRIVATIZE ATC
 
 1612 users online  

LA56 Naylor Airport
Shreveport, Louisiana, USA

GOING TO SHREVEPORT?


FAA INFORMATION EFFECTIVE 20 JULY 2017

Location

FAA Identifier: LA56
Lat/Long: 32-20-30.5620N / 093-39-30.6390W
32-20.509367N / 093-39.510650W
32.3418228 / -93.6585108
(estimated)
Elevation: 155 ft. / 47 m (estimated)
Variation: 05E (1985)
From city: 12 miles SE of SHREVEPORT, LA
Time zone: UTC -5 (UTC -6 during Standard Time)
Zip code: 71115

Airport Operations

Airport use: Private use. Permission required prior to landing
Activation date: 02/1950
Control tower: no
ARTCC: FORT WORTH CENTER
FSS: DE RIDDER FLIGHT SERVICE STATION
Attendance: MON-FRI 0800-1700
IRREGULAR
Wind indicator: yes
Segmented circle: no

Airport Communications

WX ASOS at SHV (11 nm NW): PHONE 318-636-5767
WX ASOS at DTN (13 nm N): 118.525 (318-425-7967)
WX AWOS-3PT at 3F3 (17 nm S): 119.125 (318-872-3537)

Nearby radio navigation aids

VOR radial/distance  VOR name  Freq  Var
EMGr215/4.8ELM GROVE VORTAC111.2007E
EICr156/26.9BELCHER VORTAC117.4007E

 
NDB name  Hdg/Dist  Freq  Var  ID
MANSFIELD014/17.541404EMSD -- ... -..
CARTHAGE069/33.833204ERPF .-. .--. ..-.
AMASON036/39.634104ECZJ -.-. --.. .---

Airport Services

Airframe service: NONE
Powerplant service: NONE

Runway Information

Runway 18/36

Dimensions: 2000 x 300 ft. / 610 x 91 m
Surface: turf
RUNWAY 18  RUNWAY 36
Traffic pattern: leftleft

Airport Ownership and Management from official FAA records

Ownership: Privately-owned
Owner: TOMMY ELLETT
2910 HWY 568
SHREVEPORT, LA 71334
Phone 318-757-3141
Manager: DAVID FARRAR
2121 ROBSON ROAD
SHREVEPORT, LA 71115
Phone (318) 797-3260

Airport Operational Statistics

Aircraft based on the field: 1
Single engine airplanes: 1
    

Instrument Procedures

There are no published instrument procedures at LA56.

Some nearby airports with instrument procedures:

KBAD - Barksdale Air Force Base (10 nm N)
KSHV - Shreveport Regional Airport (11 nm NW)
KDTN - Shreveport Downtown Airport (13 nm N)
3F3 - C E 'Rusty' Williams Airport (17 nm S)
KMNE - Minden Airport (26 nm NE)
 
Loc | Ops | Rwys | IFR | FBO | Links
Com | Nav | Svcs | Stats | Notes


 
Area around LA56 (Naylor Airport)
 
Road maps at: MapQuest Bing Google
 
Aerial photo
WARNING: Photo may not be current or correct
Aerial photo of LA56 (Naylor Airport)
Photo by Carl Hennigan
Photo taken 18-Feb-2008

Do you have a better or more recent aerial photo of Naylor Airport that you would like to share? If so, please send us your photo.

 
Sectional chart

 
Airport distance calculator
Flying to Naylor Airport? Find the distance to fly.

From to LA56

Sunrise and sunset
Times for 26-Jul-2017
 Local
(UTC-5)
 Zulu
(UTC)
Morning civil twilight05:5910:59
Sunrise06:2611:26
Sunset20:1601:16
Evening civil twilight20:4301:43

Current date and time
Zulu (UTC)  26-Jul-2017 15:46:33
Local (UTC-5)  26-Jul-2017 10:46:33
 
METAR
KBAD 
10nm N 
261458Z AUTO 24009KT 9SM FEW014 29/24 A3012 RMK AO2 SLP201 T02900241 52004
KSHV 
11nm NW 
261456Z 20008KT 10SM FEW012 29/26 A3012 RMK AO2 SLP195 T02890256 51004
KDTN 
13nm N 
261453Z 21010KT 10SM CLR 29/24 A3012 RMK AO2 SLP196 T02940244 53003
TAF
KBAD 
10nm N 
261136Z 2611/2716 21009KT 9999 BKN007 QNH3006INS BECMG 2613/2614 21009KT 9999 SCT010 SCT250 QNH2992INS BECMG 2616/2617 21012KT 9999 FEW030 SCT250 QNH2992INS BECMG 2700/2701 20009KT 9999 FEW250 QNH2995INS TX34/2621Z TN24/2612Z
KSHV 
11nm NW 
261255Z 2613/2712 20005KT 1 1/2SM BR OVC003 TEMPO 2613/2614 3/4SM BR OVC002 FM261400 18005KT 3SM BR BKN006 OVC010 TEMPO 2615/2616 5SM BR SCT008 BKN015 FM261600 22006KT P6SM SCT025 BKN035 FM261700 21010KT P6SM SCT025 BKN040 FM261900 21009G15KT P6SM SCT250 FM270000 18003KT P6SM FEW250 FM271000 21003KT 5SM BR BKN015
NOTAMs
Click for the latest NOTAMs
NOTAMs are issued by the DoD/FAA and will open in a separate window not controlled by AirNav.

 

 
 

Would you like to see your business listed on this page?

 If your business provides an interesting product or service to pilots, flight crews, aircraft, or users of the Naylor Airport, you should consider listing it here.  To start the listing process, click on the button below
 
Add a business
 

Other Pages about Naylor Airport

Update a link
 
Copyright © AirNav, LLC. All rights reserved. Privacy Policy  Contact